createdAt,value
2023-12-12T00:01:59.645Z,11.18
2023-12-12T00:04:30.120Z,12.77
2023-12-12T00:07:00.846Z,15.85
2023-12-12T00:09:31.160Z,9.27
2023-12-12T00:12:01.670Z,13.27
2023-12-12T00:14:34.803Z,10.88
2023-12-12T00:17:05.614Z,12.63
2023-12-12T00:19:36.519Z,10.57
2023-12-12T00:22:07.450Z,14.57
2023-12-12T00:24:37.792Z,9.32
2023-12-12T00:27:08.488Z,15.43
2023-12-12T00:29:42.222Z,13.48
2023-12-12T00:32:12.588Z,13.57
2023-12-12T00:34:44.286Z,8.88
2023-12-12T00:37:15.294Z,13.80
2023-12-12T00:39:45.729Z,11.63
2023-12-12T00:42:16.236Z,14.23
2023-12-12T00:44:49.183Z,10.90
2023-12-12T00:47:19.770Z,11.15
2023-12-12T00:49:50.444Z,8.85
2023-12-12T00:52:21.785Z,14.07
2023-12-12T00:54:53.119Z,8.80
2023-12-12T00:57:27.261Z,10.55
2023-12-12T01:00:00.815Z,10.27
2023-12-12T01:02:31.845Z,8.70
2023-12-12T01:05:02.605Z,8.10
2023-12-12T01:07:34.437Z,8.20
2023-12-12T01:10:06.265Z,8.35
2023-12-12T01:12:36.624Z,9.85
2023-12-12T01:15:10.931Z,9.95
2023-12-12T01:17:41.431Z,8.50
2023-12-12T01:20:12.834Z,6.55
2023-12-12T01:22:43.195Z,10.40
2023-12-12T01:25:14.794Z,10.70
2023-12-12T01:27:45.907Z,10.13
2023-12-12T01:30:19.034Z,8.95
2023-12-12T01:32:49.417Z,11.70
2023-12-12T01:35:19.895Z,8.50
2023-12-12T01:37:50.371Z,11.20
2023-12-12T01:40:21.089Z,9.40
2023-12-12T01:42:51.689Z,9.80
2023-12-12T01:45:25.763Z,10.88
2023-12-12T01:47:56.115Z,6.95
2023-12-12T01:50:26.526Z,9.82
2023-12-12T01:52:57.049Z,10.07
2023-12-12T01:55:27.658Z,10.15
2023-12-12T01:57:58.174Z,10.80
2023-12-12T02:00:30.973Z,11.10
2023-12-12T02:03:01.893Z,11.25
2023-12-12T02:05:33.079Z,8.48
2023-12-12T02:08:01.438Z,12.35
2023-12-12T02:10:31.747Z,9.35
2023-12-12T02:13:02.027Z,13.30
2023-12-12T02:15:35.015Z,9.68
2023-12-12T02:18:05.330Z,10.52
2023-12-12T02:20:35.599Z,8.73
2023-12-12T02:23:09.364Z,9.20
2023-12-12T02:25:40.116Z,7.20
2023-12-12T02:28:11.094Z,7.65
2023-12-12T02:30:44.222Z,11.57
2023-12-12T02:33:14.704Z,7.18
2023-12-12T02:35:44.946Z,6.25
2023-12-12T02:38:17.791Z,10.10
2023-12-12T02:40:48.200Z,8.60
2023-12-12T02:43:18.459Z,11.68
2023-12-12T02:45:48.846Z,5.70
2023-12-12T02:48:20.572Z,6.60
2023-12-12T02:50:50.818Z,5.53
2023-12-12T02:53:23.623Z,7.43
2023-12-12T02:55:53.857Z,5.38
2023-12-12T02:58:24.162Z,6.25
2023-12-12T03:00:54.583Z,10.93
2023-12-12T03:03:24.895Z,4.35
2023-12-12T03:05:55.195Z,9.18
2023-12-12T03:08:28.014Z,5.28
2023-12-12T03:10:58.183Z,5.72
2023-12-12T03:13:28.467Z,8.10
2023-12-12T03:15:58.733Z,7.47
2023-12-12T03:18:28.998Z,6.15
2023-12-12T03:21:01.365Z,4.50
2023-12-12T03:23:34.173Z,5.47
2023-12-12T03:26:09.799Z,6.68
2023-12-12T03:28:40.301Z,6.40
2023-12-12T03:31:10.821Z,5.15
2023-12-12T03:33:41.087Z,8.27
2023-12-12T03:36:12.305Z,7.97
2023-12-12T03:38:45.193Z,6.00
2023-12-12T03:41:15.868Z,5.47
2023-12-12T03:43:46.070Z,8.43
2023-12-12T03:46:16.700Z,7.32
2023-12-12T03:48:47.040Z,6.78
2023-12-12T03:51:17.304Z,6.25
2023-12-12T03:53:50.151Z,6.70
2023-12-12T03:56:20.312Z,4.97
2023-12-12T03:58:50.634Z,4.93
2023-12-12T04:01:21.121Z,8.48
2023-12-12T04:03:51.476Z,5.20
2023-12-12T04:06:21.841Z,5.03
2023-12-12T04:08:54.713Z,5.43
2023-12-12T04:11:24.852Z,8.50
2023-12-12T04:13:55.320Z,4.90
2023-12-12T04:16:25.578Z,3.58
2023-12-12T04:18:55.999Z,4.95
2023-12-12T04:21:26.292Z,4.10
2023-12-12T04:23:59.158Z,6.10
2023-12-12T04:26:32.151Z,3.33
2023-12-12T04:29:02.765Z,3.13
2023-12-12T04:31:33.261Z,5.20
2023-12-12T04:34:03.659Z,4.25
2023-12-12T04:36:34.563Z,5.47
2023-12-12T04:39:09.670Z,6.35
2023-12-12T04:41:43.533Z,5.15
2023-12-12T04:44:13.996Z,4.15
2023-12-12T04:46:44.322Z,3.65
2023-12-12T04:49:14.874Z,4.03
2023-12-12T04:51:45.208Z,4.15
2023-12-12T04:54:18.109Z,3.85
2023-12-12T04:56:48.373Z,4.88
2023-12-12T04:59:18.753Z,4.10
2023-12-12T05:01:49.127Z,3.17
2023-12-12T05:04:19.462Z,4.18
2023-12-12T05:06:50.592Z,8.00
2023-12-12T05:09:23.627Z,3.90
2023-12-12T05:11:53.833Z,3.10
2023-12-12T05:14:24.059Z,2.80
2023-12-12T05:17:01.313Z,4.93
2023-12-12T05:19:38.668Z,5.55
2023-12-12T05:22:09.131Z,4.30
2023-12-12T05:24:41.942Z,4.38
2023-12-12T05:27:12.182Z,3.65
2023-12-12T05:29:42.362Z,3.33
2023-12-12T05:32:12.642Z,6.95
2023-12-12T05:34:43.061Z,5.55
2023-12-12T05:37:13.322Z,8.98
2023-12-12T05:39:47.861Z,9.52
2023-12-12T05:42:18.252Z,8.05
2023-12-12T05:44:48.456Z,8.68
2023-12-12T05:47:18.654Z,5.05
2023-12-12T05:49:49.019Z,7.00
2023-12-12T05:52:19.414Z,10.73
2023-12-12T05:54:52.337Z,8.57
2023-12-12T05:57:22.709Z,8.95
2023-12-12T05:59:53.359Z,11.77
2023-12-12T06:02:23.769Z,12.55
2023-12-12T06:04:54.079Z,10.13
2023-12-12T06:07:24.555Z,7.13
2023-12-12T06:09:57.527Z,9.82
2023-12-12T06:12:28.573Z,6.80
2023-12-12T06:14:58.849Z,7.57
2023-12-12T06:17:29.300Z,8.85
2023-12-12T06:19:59.781Z,9.68
2023-12-12T06:22:30.106Z,8.10
2023-12-12T06:25:03.394Z,12.05
2023-12-12T06:27:34.070Z,15.50
2023-12-12T06:30:04.510Z,13.60
2023-12-12T06:32:34.792Z,10.10
2023-12-12T06:35:05.909Z,12.40
2023-12-12T06:37:36.598Z,11.68
2023-12-12T06:40:14.416Z,16.08
2023-12-12T06:42:45.157Z,12.70
2023-12-12T06:45:15.360Z,17.83
2023-12-12T06:47:46.028Z,16.20
2023-12-12T06:50:16.394Z,17.17
2023-12-12T06:52:46.653Z,18.55
2023-12-12T06:55:19.986Z,20.92
2023-12-12T06:57:50.428Z,15.90
2023-12-12T07:00:21.501Z,16.70
2023-12-12T07:02:51.815Z,16.42
2023-12-12T07:05:22.105Z,14.38
2023-12-12T07:07:52.537Z,14.98
2023-12-12T07:10:25.523Z,11.32
2023-12-12T07:15:41.587Z,14.80
2023-12-12T07:18:14.339Z,15.43
2023-12-12T07:20:45.591Z,15.30
2023-12-12T07:23:18.202Z,22.35
2023-12-12T07:25:51.235Z,13.75
2023-12-12T07:28:22.426Z,15.07
2023-12-12T07:30:52.740Z,22.35
2023-12-12T07:33:23.153Z,23.65
2023-12-12T07:35:53.436Z,20.17
2023-12-12T07:38:25.126Z,18.92
2023-12-12T07:41:00.597Z,18.77
2023-12-12T07:43:31.257Z,16.77
2023-12-12T07:46:01.663Z,22.98
2023-12-12T07:48:35.001Z,24.75
2023-12-12T07:51:06.164Z,21.50
2023-12-12T07:53:36.838Z,20.90
2023-12-12T07:56:11.174Z,26.17
2023-12-12T07:58:41.882Z,23.48
2023-12-12T08:01:12.319Z,22.02
2023-12-12T08:03:43.212Z,25.35
2023-12-12T08:06:14.525Z,21.30
2023-12-12T08:08:44.837Z,23.85
2023-12-12T08:11:19.046Z,24.45
2023-12-12T08:13:49.398Z,20.58
2023-12-12T08:16:19.774Z,24.30
2023-12-12T08:18:50.209Z,18.95
2023-12-12T08:21:21.492Z,23.73
2023-12-12T08:23:52.976Z,23.33
2023-12-12T08:26:26.457Z,25.25
2023-12-12T08:28:56.929Z,21.27
2023-12-12T08:31:27.624Z,29.53
2023-12-12T08:33:58.062Z,18.37
2023-12-12T08:36:28.449Z,22.00
2023-12-12T08:38:59.703Z,27.70
2023-12-12T08:41:32.860Z,23.23
2023-12-12T08:44:03.757Z,23.10
2023-12-12T08:46:34.140Z,27.03
2023-12-12T08:49:04.810Z,29.10
2023-12-12T08:51:36.297Z,29.50
2023-12-12T08:54:07.310Z,28.10
2023-12-12T08:56:43.866Z,22.27
2023-12-12T08:59:14.065Z,22.63
2023-12-12T09:01:44.550Z,26.47
2023-12-12T09:04:18.204Z,24.45
2023-12-12T09:06:48.671Z,24.17
2023-12-12T09:09:19.367Z,20.40
2023-12-12T09:11:52.507Z,20.57
2023-12-12T09:14:22.842Z,20.83
2023-12-12T09:16:53.635Z,24.00
2023-12-12T09:19:24.378Z,23.10
2023-12-12T09:21:55.821Z,20.17
2023-12-12T09:24:26.243Z,18.10
2023-12-12T09:26:59.395Z,20.40
2023-12-12T09:29:29.792Z,18.20
2023-12-12T09:32:00.745Z,19.93
2023-12-12T09:34:31.201Z,21.53
2023-12-12T09:37:01.846Z,20.90
2023-12-12T09:39:32.201Z,13.63
2023-12-12T09:42:07.015Z,17.57
2023-12-12T09:44:37.935Z,16.90
2023-12-12T09:47:08.738Z,16.57
2023-12-12T09:49:40.827Z,12.00
2023-12-12T09:52:11.656Z,15.83
2023-12-12T09:54:57.307Z,20.87
2023-12-12T09:57:31.799Z,16.57
2023-12-12T10:00:02.600Z,17.87
2023-12-12T10:02:38.468Z,21.27
2023-12-12T10:05:11.069Z,18.17
2023-12-12T10:07:41.713Z,17.70
2023-12-12T10:10:18.469Z,14.77
2023-12-12T10:12:51.581Z,17.93
2023-12-12T10:15:26.861Z,15.63
2023-12-12T10:17:59.311Z,16.13
2023-12-12T10:20:30.567Z,17.00
2023-12-12T10:23:05.141Z,18.23
2023-12-12T10:25:37.370Z,14.40
2023-12-12T10:28:10.344Z,13.70
2023-12-12T10:30:42.251Z,13.73
2023-12-12T10:33:15.830Z,15.90
2023-12-12T10:35:48.912Z,19.03
2023-12-12T10:38:19.186Z,14.40
2023-12-12T10:40:50.368Z,15.27
2023-12-12T10:43:23.429Z,16.37
2023-12-12T10:45:54.604Z,16.63
2023-12-12T10:48:26.151Z,18.87
2023-12-12T10:50:57.577Z,15.43
2023-12-12T10:53:28.165Z,14.03
2023-12-12T10:56:00.140Z,15.30
2023-12-12T10:58:33.219Z,17.47
2023-12-12T11:01:04.952Z,17.07
2023-12-12T11:03:36.642Z,21.93
2023-12-12T11:06:08.185Z,15.03
2023-12-12T11:08:38.760Z,18.47
2023-12-12T11:11:12.311Z,12.70
2023-12-12T11:13:47.225Z,16.03
2023-12-12T11:16:17.831Z,16.03
2023-12-12T11:18:50.671Z,15.50
2023-12-12T11:21:56.783Z,20.80
2023-12-12T11:25:02.117Z,18.03
2023-12-12T11:27:32.750Z,24.03
2023-12-12T11:30:06.846Z,21.13
2023-12-12T11:32:37.758Z,23.37
2023-12-12T11:35:08.512Z,18.83
2023-12-12T11:37:45.434Z,16.90
2023-12-12T11:40:15.778Z,23.33
2023-12-12T11:42:47.713Z,17.73
2023-12-12T11:45:33.172Z,23.13
2023-12-12T11:48:05.086Z,20.10
2023-12-12T11:50:37.101Z,17.33
2023-12-12T11:53:07.663Z,20.73
2023-12-12T11:55:44.641Z,19.07
2023-12-12T11:58:16.096Z,22.00
2023-12-12T12:00:49.031Z,17.07
2023-12-12T12:03:19.340Z,21.70
2023-12-12T12:05:49.813Z,22.20
2023-12-12T12:08:22.116Z,25.10
2023-12-12T12:10:59.309Z,19.70
2023-12-12T12:13:41.365Z,26.50
2023-12-12T12:16:15.488Z,27.27
2023-12-12T12:18:46.172Z,21.70
2023-12-12T12:21:16.516Z,22.80
2023-12-12T12:23:46.814Z,31.07
2023-12-12T12:26:17.099Z,21.17
2023-12-12T12:28:47.390Z,26.07
2023-12-12T12:31:31.047Z,27.53
2023-12-12T12:34:01.374Z,20.40
2023-12-12T12:36:40.702Z,23.83
2023-12-12T12:39:11.281Z,21.80
2023-12-12T12:41:41.656Z,20.27
2023-12-12T12:44:12.024Z,25.10
2023-12-12T12:46:51.539Z,22.53
2023-12-12T12:49:22.017Z,26.60
2023-12-12T12:51:52.980Z,18.97
2023-12-12T12:54:23.275Z,22.00
2023-12-12T12:56:53.757Z,21.77
2023-12-12T12:59:24.061Z,20.40
2023-12-12T13:01:57.050Z,24.73
2023-12-12T13:04:27.378Z,19.37
2023-12-12T13:06:57.726Z,24.43
2023-12-12T13:09:29.206Z,25.20
2023-12-12T13:12:00.165Z,25.07
2023-12-12T13:14:30.389Z,27.80
2023-12-12T13:17:04.678Z,27.80
2023-12-12T13:19:35.118Z,24.60
2023-12-12T13:22:05.728Z,28.10
2023-12-12T13:24:36.201Z,20.63
2023-12-12T13:27:06.850Z,24.67
2023-12-12T13:29:37.119Z,24.87
2023-12-12T13:32:10.663Z,26.60
2023-12-12T13:34:40.968Z,19.73
2023-12-12T13:37:11.258Z,26.10
2023-12-12T13:39:41.552Z,23.67
2023-12-12T13:42:11.882Z,25.40
2023-12-12T13:44:42.940Z,23.40
2023-12-12T13:47:16.450Z,24.30
2023-12-12T13:49:46.845Z,21.97
2023-12-12T13:52:17.629Z,25.10
2023-12-12T13:54:47.919Z,25.87
2023-12-12T13:57:18.198Z,24.10
2023-12-12T13:59:48.489Z,22.17
2023-12-12T14:02:29.680Z,27.10
2023-12-12T14:05:04.557Z,27.80
2023-12-12T14:07:35.798Z,21.80
2023-12-12T14:10:08.185Z,24.17
2023-12-12T14:12:38.656Z,29.47
2023-12-12T14:15:10.289Z,29.10
2023-12-12T14:17:43.312Z,24.10
2023-12-12T14:20:14.853Z,28.50
2023-12-12T14:22:50.040Z,23.57
2023-12-12T14:25:25.687Z,29.73
2023-12-12T14:27:56.246Z,31.47
2023-12-12T14:30:28.295Z,35.60
2023-12-12T14:33:02.217Z,37.37
2023-12-12T14:35:32.899Z,44.20
2023-12-12T14:38:03.244Z,30.90
2023-12-12T14:40:33.567Z,34.47
2023-12-12T14:43:04.585Z,34.30
2023-12-12T14:45:34.958Z,31.30
2023-12-12T14:48:08.176Z,33.13
2023-12-12T14:50:41.056Z,35.43
2023-12-12T14:53:11.384Z,34.20
2023-12-12T14:55:41.979Z,33.07
2023-12-12T14:58:12.407Z,33.63
2023-12-12T15:00:42.739Z,35.90
2023-12-12T15:03:16.029Z,42.40
2023-12-12T15:05:46.428Z,42.27
2023-12-12T15:08:16.649Z,35.77
2023-12-12T15:10:47.005Z,31.83
2023-12-12T15:13:17.347Z,30.20
2023-12-12T15:15:47.535Z,38.27
2023-12-12T15:18:20.513Z,30.30
2023-12-12T15:20:52.851Z,35.63
2023-12-12T15:23:23.458Z,38.00
2023-12-12T15:25:53.911Z,37.87
2023-12-12T15:28:27.458Z,36.47
2023-12-12T15:30:59.180Z,31.70
2023-12-12T15:33:34.375Z,33.70
2023-12-12T15:36:08.669Z,30.53
2023-12-12T15:38:38.994Z,32.27
2023-12-12T15:41:09.717Z,42.80
2023-12-12T15:43:40.875Z,35.57
2023-12-12T15:46:11.185Z,36.40
2023-12-12T15:48:44.095Z,31.30
2023-12-12T15:51:15.346Z,40.10
2023-12-12T15:53:45.679Z,36.63
2023-12-12T15:56:16.441Z,38.97
2023-12-12T15:58:48.839Z,33.83
2023-12-12T16:01:19.563Z,38.67
2023-12-12T16:03:55.986Z,37.40
2023-12-12T16:06:26.302Z,42.27
2023-12-12T16:08:56.481Z,35.27
2023-12-12T16:11:26.709Z,44.10
2023-12-12T16:13:58.199Z,49.03
2023-12-12T16:16:29.341Z,34.53
2023-12-12T16:19:02.298Z,34.07
2023-12-12T16:21:34.761Z,42.33
2023-12-12T16:24:04.976Z,35.20
2023-12-12T16:26:35.329Z,35.07
2023-12-12T16:29:05.841Z,40.60
2023-12-12T16:31:36.193Z,43.83
2023-12-12T16:34:11.448Z,37.53
2023-12-12T16:36:41.783Z,36.30
2023-12-12T16:39:12.683Z,36.30
2023-12-12T16:41:43.099Z,41.97
2023-12-12T16:44:13.479Z,40.27
2023-12-12T16:46:44.870Z,35.77
2023-12-12T16:49:18.948Z,43.10
2023-12-12T16:51:49.623Z,41.43
2023-12-12T16:54:20.921Z,44.60
2023-12-12T16:56:52.418Z,43.00
2023-12-12T16:59:22.714Z,44.27
2023-12-12T17:01:54.262Z,37.23
2023-12-12T17:04:30.270Z,41.67
2023-12-12T17:07:00.906Z,39.10
2023-12-12T17:09:31.224Z,35.63
2023-12-12T17:12:01.501Z,39.80
2023-12-12T17:14:32.065Z,41.70
2023-12-12T17:17:03.028Z,41.67
2023-12-12T17:19:35.901Z,38.07
2023-12-12T17:22:06.530Z,41.60
2023-12-12T17:24:36.830Z,40.93
2023-12-12T17:27:07.755Z,38.50
2023-12-12T17:29:38.216Z,40.67
2023-12-12T17:32:11.758Z,41.47
2023-12-12T17:34:47.143Z,46.77
2023-12-12T17:37:17.663Z,41.50
2023-12-12T17:39:47.935Z,40.17
2023-12-12T17:42:18.251Z,45.70
2023-12-12T17:44:48.580Z,42.67
2023-12-12T17:47:18.878Z,48.93
2023-12-12T17:49:52.862Z,39.67
2023-12-12T17:52:23.261Z,42.20
2023-12-12T17:54:53.659Z,42.57
2023-12-12T17:57:23.930Z,43.17
2023-12-12T17:59:54.275Z,43.50
2023-12-12T18:02:24.502Z,51.73
2023-12-12T18:04:59.532Z,47.20
2023-12-12T18:07:30.204Z,45.20
2023-12-12T18:10:00.764Z,38.77
2023-12-12T18:12:31.261Z,38.80
2023-12-12T18:15:01.518Z,42.80
2023-12-12T18:17:32.584Z,38.30
2023-12-12T18:20:05.768Z,35.23
2023-12-12T18:22:36.197Z,38.53
2023-12-12T18:25:06.955Z,35.53
2023-12-12T18:27:38.033Z,41.27
2023-12-12T18:30:10.850Z,34.77
2023-12-12T18:32:42.204Z,39.10
2023-12-12T18:35:15.618Z,34.37
2023-12-12T18:37:46.520Z,35.17
2023-12-12T18:40:19.003Z,31.53
2023-12-12T18:42:49.913Z,34.97
2023-12-12T18:45:20.510Z,33.50
2023-12-12T18:47:51.806Z,30.70
2023-12-12T18:50:25.524Z,33.60
2023-12-12T18:52:57.595Z,31.40
2023-12-12T18:55:29.784Z,31.00
2023-12-12T18:58:02.937Z,29.13
2023-12-12T19:00:36.623Z,30.03
2023-12-12T19:03:10.275Z,29.77
2023-12-12T19:05:46.994Z,32.40
2023-12-12T19:08:19.658Z,31.07
2023-12-12T19:10:51.079Z,36.33
2023-12-12T19:13:23.623Z,28.77
2023-12-12T19:15:58.989Z,28.27
2023-12-12T19:18:32.426Z,27.40
2023-12-12T19:21:08.660Z,27.37
2023-12-12T19:23:44.401Z,23.73
2023-12-12T19:26:18.109Z,35.10
2023-12-12T19:28:51.892Z,48.60
2023-12-12T19:31:25.679Z,57.43
2023-12-12T19:33:59.313Z,59.73
2023-12-12T19:36:35.636Z,61.97
2023-12-12T19:39:12.105Z,59.23
2023-12-12T19:41:47.097Z,49.40
2023-12-12T19:44:20.998Z,44.33
2023-12-12T19:46:55.261Z,47.73
2023-12-12T19:49:29.583Z,48.23
2023-12-12T19:52:09.280Z,46.97
2023-12-12T19:54:43.464Z,53.87
2023-12-12T19:57:17.631Z,47.73
2023-12-12T19:59:51.878Z,48.83
2023-12-12T20:02:27.789Z,52.70
2023-12-12T20:05:02.732Z,51.23
2023-12-12T20:07:40.835Z,53.57
2023-12-12T20:10:17.296Z,49.30
2023-12-12T20:12:54.933Z,47.20
2023-12-12T20:15:30.174Z,47.20
2023-12-12T20:18:07.743Z,44.33
2023-12-12T20:20:41.671Z,52.57
2023-12-12T20:23:19.665Z,49.03
2023-12-12T20:25:54.206Z,52.63
2023-12-12T20:28:29.657Z,54.30
2023-12-12T20:31:06.345Z,57.30
2023-12-12T20:33:40.914Z,53.83
2023-12-12T20:36:18.948Z,48.77
2023-12-12T20:38:56.044Z,55.57
2023-12-12T20:41:33.430Z,53.45
2023-12-12T20:44:11.369Z,64.83
2023-12-12T20:46:47.871Z,53.60
2023-12-12T20:49:24.930Z,52.03
2023-12-12T20:52:00.600Z,53.17
2023-12-12T20:54:39.477Z,51.97
2023-12-12T20:57:16.466Z,57.05
2023-12-12T20:59:50.472Z,50.63
2023-12-12T21:02:21.432Z,53.73
2023-12-12T21:05:05.734Z,51.83
2023-12-12T21:07:37.837Z,50.03
2023-12-12T21:10:12.036Z,48.17
2023-12-12T21:12:42.506Z,42.37
2023-12-12T21:15:13.795Z,46.07
2023-12-12T21:17:44.327Z,47.77
2023-12-12T21:20:15.675Z,44.00
2023-12-12T21:22:48.708Z,39.07
2023-12-12T21:25:21.990Z,39.63
2023-12-12T21:27:52.402Z,41.97
2023-12-12T21:30:22.805Z,37.50
2023-12-12T21:32:53.212Z,39.30
2023-12-12T21:35:23.705Z,33.97
2023-12-12T21:37:55.409Z,48.23
2023-12-12T21:40:29.349Z,45.43
2023-12-12T21:42:59.758Z,40.95
2023-12-12T21:45:30.033Z,42.60
2023-12-12T21:48:02.453Z,41.03
2023-12-12T21:50:33.342Z,43.03
2023-12-12T21:53:03.663Z,41.10
2023-12-12T21:55:36.722Z,42.37
2023-12-12T21:58:07.550Z,39.83
2023-12-12T22:00:37.963Z,40.03
2023-12-12T22:03:08.504Z,41.27
2023-12-12T22:05:38.877Z,39.10
2023-12-12T22:08:09.233Z,39.60
2023-12-12T22:10:42.140Z,37.93
2023-12-12T22:13:15.026Z,40.07
2023-12-12T22:15:45.543Z,39.57
2023-12-12T22:18:16.761Z,39.47
2023-12-12T22:20:47.148Z,36.57
2023-12-12T22:23:17.461Z,40.13
2023-12-12T22:25:50.448Z,45.50
2023-12-12T22:28:20.881Z,42.97
2023-12-12T22:30:51.124Z,38.07
2023-12-12T22:33:21.424Z,43.23
2023-12-12T22:35:51.731Z,36.40
2023-12-12T22:38:22.201Z,42.60
2023-12-12T22:40:57.454Z,33.40
2023-12-12T22:43:27.844Z,39.97
2023-12-12T22:45:58.780Z,41.73
2023-12-12T22:48:29.131Z,36.87
2023-12-12T22:50:59.564Z,35.00
2023-12-12T22:53:29.929Z,37.47
2023-12-12T22:56:04.609Z,38.60
2023-12-12T22:58:35.058Z,35.60
2023-12-12T23:01:06.579Z,31.90
2023-12-12T23:03:37.158Z,39.13
2023-12-12T23:06:08.011Z,39.07
2023-12-12T23:08:38.508Z,31.50
2023-12-12T23:11:12.883Z,37.20
2023-12-12T23:13:43.744Z,36.57
2023-12-12T23:16:14.103Z,35.30
2023-12-12T23:18:44.334Z,36.77
2023-12-12T23:21:14.665Z,39.23
2023-12-12T23:23:44.905Z,35.97
2023-12-12T23:26:17.754Z,38.40
2023-12-12T23:28:48.137Z,41.30
2023-12-12T23:31:18.707Z,37.97
2023-12-12T23:33:49.366Z,38.53
2023-12-12T23:36:20.854Z,38.57
2023-12-12T23:38:51.203Z,39.93
2023-12-12T23:41:24.322Z,32.73
2023-12-12T23:43:54.870Z,39.50
2023-12-12T23:46:25.367Z,33.90
2023-12-12T23:48:56.844Z,30.63
2023-12-12T23:51:27.508Z,35.77
2023-12-12T23:53:58.002Z,28.80
2023-12-12T23:56:31.022Z,32.93
2023-12-12T23:59:01.624Z,49.70
